Time;durP1;ratioP1;P1;durP2;ratioP2;P2;SDS_P1;SDS_P2;PMS_P1;PMS_P2;Temp;Humidity;BMP_temperature;BMP_pressure;BME280_temperature;BME280_humidity;BME280_pressure;Samples;Min_cycle;Max_cycle;Signal;HPM_P1;HPM_P2
2022/11/04 00:01:40;;;;;;;25.77;18.33;;;10.90;99.90;;;;;;4924052;29;20445;-64
2022/11/04 00:04:06;;;;;;;23.67;17.95;;;11.20;99.90;;;;;;4908055;29;20059;-63
2022/11/04 00:06:32;;;;;;;24.98;18.77;;;11.20;99.90;;;;;;4924548;29;20055;-65
2022/11/04 00:08:58;;;;;;;23.45;18.10;;;11.20;99.90;;;;;;4924037;29;20490;-69
2022/11/04 00:14:11;;;;;;;24.70;19.17;;;11.10;99.90;;;;;;4923607;29;20076;-70
2022/11/04 00:19:22;;;;;;;10.43;7.22;;;11.00;99.90;;;;;;4924172;29;20504;-67
2022/11/04 00:30:00;;;;;;;9.68;5.97;;;11.10;99.90;;;;;;4923760;29;20083;-70
2022/11/04 00:35:11;;;;;;;10.30;6.20;;;10.90;99.90;;;;;;4923573;29;20048;-68
2022/11/04 00:37:42;;;;;;;8.65;5.20;;;10.80;99.90;;;;;;4924705;29;20033;-68
2022/11/04 00:40:09;;;;;;;7.93;4.15;;;10.80;99.90;;;;;;4923219;29;20083;-67
2022/11/04 00:42:35;;;;;;;8.18;3.78;;;10.70;99.90;;;;;;4924003;29;20063;-67
2022/11/04 00:45:01;;;;;;;7.22;3.03;;;10.70;99.90;;;;;;4924228;29;20044;-66
2022/11/04 00:47:27;;;;;;;5.65;2.60;;;10.80;99.90;;;;;;4922548;29;20048;-67
2022/11/04 00:49:52;;;;;;;6.03;2.38;;;10.50;99.90;;;;;;4891274;29;20684;-63
2022/11/04 00:52:18;;;;;;;4.72;2.20;;;10.80;99.90;;;;;;4922931;29;20187;-68
2022/11/04 00:54:44;;;;;;;5.07;1.90;;;10.50;99.90;;;;;;4924211;29;20036;-68
2022/11/04 00:57:13;;;;;;;5.13;1.70;;;10.40;99.90;;;;;;4923000;29;20047;-68
2022/11/04 00:59:39;;;;;;;4.05;1.40;;;10.80;99.90;;;;;;4924097;29;20115;-65
2022/11/04 01:02:09;;;;;;;3.00;1.05;;;10.70;99.90;;;;;;4923435;29;20056;-69
2022/11/04 01:04:35;;;;;;;3.58;0.75;;;10.60;99.90;;;;;;4923279;29;20048;-69
2022/11/04 01:07:02;;;;;;;1.92;0.70;;;10.20;99.90;;;;;;4923279;29;20088;-70
2022/11/04 01:09:28;;;;;;;5.38;0.85;;;10.30;99.90;;;;;;4922450;29;20045;-71
2022/11/04 01:11:53;;;;;;;3.85;0.60;;;10.30;99.90;;;;;;4906706;29;20066;-71
2022/11/04 01:14:19;;;;;;;3.33;0.50;;;10.50;99.90;;;;;;4922697;29;20040;-73
2022/11/04 01:16:45;;;;;;;1.80;0.60;;;10.40;99.90;;;;;;4906628;29;20108;-73
2022/11/04 01:19:11;;;;;;;3.58;0.70;;;10.30;99.90;;;;;;4923009;29;20052;-76
2022/11/04 01:21:37;;;;;;;5.50;0.73;;;10.40;99.90;;;;;;4922821;29;20055;-74
2022/11/04 01:24:03;;;;;;;2.80;0.50;;;10.40;99.90;;;;;;4923106;29;20056;-74
2022/11/04 01:26:30;;;;;;;4.50;0.80;;;10.00;99.90;;;;;;4922394;29;20052;-73
2022/11/04 01:28:56;;;;;;;3.90;1.27;;;10.40;99.90;;;;;;4906544;29;20128;-71
2022/11/04 01:31:25;;;;;;;4.60;0.60;;;10.50;99.90;;;;;;4922346;29;20099;-70
2022/11/04 01:33:52;;;;;;;3.83;0.52;;;10.30;99.90;;;;;;4906881;29;20223;-70
2022/11/04 01:36:18;;;;;;;4.32;0.70;;;10.60;99.90;;;;;;4922643;29;20044;-70
2022/11/04 01:38:44;;;;;;;4.72;0.70;;;10.60;99.90;;;;;;4922869;29;20076;-69
2022/11/04 01:41:42;;;;;;;3.45;0.70;;;10.20;99.90;;;;;;4922902;29;20111;-69
2022/11/04 01:44:42;;;;;;;4.53;1.20;;;10.30;99.90;;;;;;4890331;29;20056;-68
2022/11/04 01:47:21;;;;;;;2.38;0.60;;;10.70;99.90;;;;;;4922681;29;20040;-67
2022/11/04 01:49:53;;;;;;;2.80;0.82;;;10.40;99.90;;;;;;4923521;29;20048;-67
2022/11/04 01:52:31;;;;;;;3.60;0.95;;;10.70;99.90;;;;;;4922156;29;20091;-67
2022/11/04 01:55:00;;;;;;;4.22;0.93;;;10.30;99.90;;;;;;4923772;29;20044;-67
2022/11/04 01:57:34;;;;;;;5.50;1.10;;;10.80;99.90;;;;;;4922582;29;20152;-66
2022/11/04 02:00:03;;;;;;;8.85;1.40;;;10.40;99.90;;;;;;4906066;29;20055;-66
2022/11/04 02:02:29;;;;;;;6.07;1.10;;;10.80;99.90;;;;;;4906149;29;20044;-64
2022/11/04 02:04:55;;;;;;;4.15;1.08;;;10.70;99.90;;;;;;4922393;29;20047;-65
2022/11/04 02:07:22;;;;;;;4.70;0.90;;;10.70;99.90;;;;;;4906156;29;20047;-65
2022/11/04 02:09:48;;;;;;;8.20;1.02;;;10.80;99.90;;;;;;4921898;29;20080;-65
2022/11/04 02:14:59;;;;;;;4.72;1.05;;;10.50;99.90;;;;;;4908322;29;20080;-64
2022/11/04 02:17:44;;;;;;;3.58;1.10;;;10.20;99.90;;;;;;4922197;29;20260;-65
2022/11/04 02:20:39;;;;;;;6.85;1.27;;;10.20;99.90;;;;;;4912265;29;20048;-64
2022/11/04 02:23:43;;;;;;;7.25;1.00;;;10.80;99.90;;;;;;4918712;29;20063;-64
2022/11/04 02:26:37;;;;;;;3.22;0.75;;;10.70;99.90;;;;;;4921942;29;20051;-64
2022/11/04 02:29:21;;;;;;;6.43;1.00;;;10.30;99.90;;;;;;4923274;29;20259;-63
2022/11/04 02:31:53;;;;;;;9.15;1.10;;;10.60;99.90;;;;;;4921988;29;20493;-66
2022/11/04 02:34:21;;;;;;;6.20;0.90;;;10.40;99.90;;;;;;4922193;29;20052;-64
2022/11/04 02:37:01;;;;;;;8.48;0.90;;;10.50;99.90;;;;;;4921970;29;20076;-63
2022/11/04 02:39:41;;;;;;;9.05;1.38;;;10.70;99.90;;;;;;4921821;29;20107;-64
2022/11/04 02:42:23;;;;;;;10.30;1.00;;;10.50;99.90;;;;;;4922960;29;20048;-64
2022/11/04 02:45:14;;;;;;;6.70;0.98;;;10.10;99.90;;;;;;4922232;29;20155;-64
2022/11/04 02:47:44;;;;;;;5.65;1.27;;;10.50;99.90;;;;;;4911169;29;20089;-65
2022/11/04 02:50:19;;;;;;;8.77;1.00;;;10.50;99.90;;;;;;4923039;29;20044;-65
2022/11/04 02:53:02;;;;;;;6.03;1.10;;;10.20;99.90;;;;;;4921806;29;20040;-65
2022/11/04 02:55:42;;;;;;;5.35;0.85;;;10.30;99.90;;;;;;4922208;29;20037;-65
2022/11/04 02:58:37;;;;;;;5.25;0.90;;;10.20;99.90;;;;;;4922142;29;20067;-64
2022/11/04 03:01:05;;;;;;;5.78;0.90;;;10.30;99.90;;;;;;4919292;29;20064;-65
2022/11/04 03:03:39;;;;;;;5.28;0.93;;;10.30;99.90;;;;;;4922495;29;20076;-64
2022/11/04 03:06:09;;;;;;;5.90;0.90;;;10.30;99.90;;;;;;4904297;29;20059;-64
2022/11/04 03:08:40;;;;;;;6.63;1.00;;;10.00;99.90;;;;;;4921933;29;20473;-65
2022/11/04 03:11:11;;;;;;;7.53;0.93;;;10.40;99.90;;;;;;4923415;29;20046;-65
2022/11/04 03:13:56;;;;;;;8.50;0.90;;;10.00;99.90;;;;;;4925055;29;20050;-64
2022/11/04 03:16:47;;;;;;;7.43;1.08;;;10.10;99.90;;;;;;4925965;29;20055;-64
2022/11/04 03:19:25;;;;;;;7.45;0.93;;;10.30;99.90;;;;;;4925696;29;20043;-64
2022/11/04 03:21:58;;;;;;;7.05;1.30;;;10.10;99.90;;;;;;4924677;29;20048;-64
2022/11/04 03:24:24;;;;;;;9.23;1.05;;;10.30;99.90;;;;;;4925924;29;20686;-64
2022/11/04 03:26:59;;;;;;;8.23;1.00;;;10.20;99.90;;;;;;4924413;29;20048;-64
2022/11/04 03:29:41;;;;;;;8.38;1.02;;;10.40;99.90;;;;;;4926231;29;20048;-62
2022/11/04 03:32:12;;;;;;;5.47;0.85;;;10.10;99.90;;;;;;4925502;29;20037;-64
2022/11/04 03:34:38;;;;;;;7.35;0.90;;;10.10;99.90;;;;;;4924758;29;20536;-63
2022/11/04 03:37:04;;;;;;;8.57;1.20;;;10.20;99.90;;;;;;4925499;29;20033;-63
2022/11/04 03:39:30;;;;;;;13.02;1.17;;;10.00;99.90;;;;;;4924151;29;20044;-63
2022/11/04 03:41:59;;;;;;;12.15;1.20;;;10.40;99.90;;;;;;4925717;29;20044;-63
2022/11/04 03:44:25;;;;;;;6.55;2.85;;;10.40;99.90;;;;;;4924656;29;20056;-63
2022/11/04 03:46:54;;;;;;;9.43;2.58;;;10.20;99.90;;;;;;4925244;29;20096;-63
2022/11/04 03:49:22;;;;;;;9.98;2.72;;;10.10;99.90;;;;;;4921475;29;20071;-63
2022/11/04 03:51:49;;;;;;;7.57;1.13;;;10.30;99.90;;;;;;4915784;29;20047;-64
2022/11/04 03:54:15;;;;;;;8.18;1.10;;;10.40;99.90;;;;;;4915375;29;20044;-67
2022/11/04 03:57:02;;;;;;;6.05;1.10;;;10.60;99.90;;;;;;4905035;29;20481;-71
2022/11/04 03:59:34;;;;;;;4.97;0.93;;;10.30;99.90;;;;;;4923234;29;20134;-70
2022/11/04 04:02:06;;;;;;;4.93;0.90;;;10.30;99.90;;;;;;4924322;29;20048;-70
2022/11/04 04:04:40;;;;;;;4.18;1.35;;;10.00;99.90;;;;;;4924068;29;20066;-75
2022/11/04 04:07:13;;;;;;;6.47;1.13;;;9.90;99.90;;;;;;4914782;29;20052;-75
2022/11/04 04:09:59;;;;;;;8.77;1.27;;;9.80;99.90;;;;;;4904617;29;20087;-69
2022/11/04 04:12:36;;;;;;;5.55;1.20;;;9.80;99.90;;;;;;4888235;29;20383;-70
2022/11/04 04:15:09;;;;;;;5.78;1.20;;;9.70;99.90;;;;;;4888424;29;20386;-69
2022/11/04 04:17:57;;;;;;;7.43;1.17;;;9.50;99.90;;;;;;4904817;29;20040;-71
2022/11/04 04:20:27;;;;;;;6.45;1.25;;;9.70;99.90;;;;;;4904883;29;20595;-71
2022/11/04 04:28:46;;;;;;;5.70;1.30;;;9.50;99.90;;;;;;4907572;29;20191;-76
2022/11/04 04:31:48;;;;;;;8.60;1.80;;;10.20;99.90;;;;;;4906202;29;20192;-75
2022/11/04 04:34:03;;;;;;;5.38;1.45;;;10.20;99.90;;;;;;4923689;29;20052;-72
2022/11/04 04:36:31;;;;;;;5.85;1.20;;;10.20;99.90;;;;;;4923543;29;20091;-71
2022/11/04 04:47:21;;;;;;;6.47;1.30;;;10.20;99.90;;;;;;4923332;29;20059;-70
2022/11/04 04:49:54;;;;;;;5.30;1.20;;;10.20;99.90;;;;;;4923920;29;20044;-70
2022/11/04 04:52:22;;;;;;;3.63;1.10;;;10.10;99.90;;;;;;4922462;29;20055;-70
2022/11/04 04:54:48;;;;;;;4.90;1.10;;;10.10;99.90;;;;;;4924447;29;20091;-70
2022/11/04 04:57:13;;;;;;;6.97;1.30;;;9.60;99.90;;;;;;4921379;29;20048;-69
2022/11/04 04:59:39;;;;;;;7.03;1.40;;;9.60;99.90;;;;;;4904874;29;20045;-69
2022/11/04 05:02:05;;;;;;;6.70;1.95;;;9.40;99.90;;;;;;4904417;29;20048;-70
2022/11/04 05:04:30;;;;;;;5.38;1.15;;;9.70;99.90;;;;;;4903930;29;20087;-72
2022/11/04 05:06:56;;;;;;;4.05;1.20;;;10.20;99.90;;;;;;4904195;29;20062;-71
2022/11/04 05:09:22;;;;;;;6.88;1.45;;;9.50;99.90;;;;;;4903477;29;20037;-71
2022/11/04 05:11:47;;;;;;;6.13;1.42;;;9.40;99.90;;;;;;4904502;29;20067;-71
2022/11/04 05:14:13;;;;;;;4.78;1.52;;;9.50;99.90;;;;;;4903567;29;20067;-71
2022/11/04 05:16:38;;;;;;;7.75;1.20;;;9.50;99.90;;;;;;4904438;29;20122;-71
2022/11/04 05:19:04;;;;;;;7.65;1.20;;;10.10;99.90;;;;;;4887033;29;20049;-73
2022/11/04 05:21:30;;;;;;;5.88;1.50;;;9.40;99.90;;;;;;4903409;29;20089;-76
2022/11/04 05:23:55;;;;;;;4.45;0.90;;;10.10;99.90;;;;;;4887504;29;20449;-74
2022/11/04 05:26:21;;;;;;;8.65;1.55;;;10.00;99.90;;;;;;4903316;29;20454;-72
2022/11/04 05:28:46;;;;;;;6.38;1.35;;;9.90;99.90;;;;;;4904599;29;20438;-71
2022/11/04 05:31:12;;;;;;;3.83;1.17;;;9.40;99.90;;;;;;4903079;29;20049;-71
2022/11/04 05:33:38;;;;;;;9.88;1.52;;;9.60;99.90;;;;;;4904372;29;20056;-71
2022/11/04 05:36:06;;;;;;;6.18;1.33;;;9.70;99.90;;;;;;4903330;29;20093;-70
2022/11/04 05:38:32;;;;;;;9.02;1.17;;;9.70;99.90;;;;;;4903631;29;20080;-70
2022/11/04 05:40:58;;;;;;;4.22;1.13;;;9.70;99.90;;;;;;4903396;29;20052;-69
2022/11/04 05:43:23;;;;;;;10.23;1.30;;;9.60;99.90;;;;;;4886130;29;20092;-68
2022/11/04 05:45:49;;;;;;;4.03;1.20;;;9.90;99.90;;;;;;4904184;29;20068;-68
2022/11/04 05:48:15;;;;;;;12.23;1.40;;;9.40;99.90;;;;;;4886076;29;20048;-67
2022/11/04 05:50:41;;;;;;;5.22;1.20;;;9.30;99.90;;;;;;4904472;29;20100;-67
2022/11/04 05:53:07;;;;;;;6.68;1.35;;;9.70;99.90;;;;;;4903445;29;20048;-67
2022/11/04 05:55:33;;;;;;;5.63;1.00;;;9.30;99.90;;;;;;4903808;29;20078;-66
2022/11/04 05:57:58;;;;;;;4.40;0.98;;;9.80;99.90;;;;;;4911378;29;20394;-65
2022/11/04 06:00:27;;;;;;;6.53;1.40;;;9.60;99.90;;;;;;4921931;29;20062;-65
2022/11/04 06:02:56;;;;;;;5.70;1.30;;;9.60;99.90;;;;;;4922919;29;20131;-66
2022/11/04 06:05:22;;;;;;;6.43;1.30;;;9.30;99.90;;;;;;4921534;29;20084;-66
2022/11/04 06:07:48;;;;;;;5.80;1.20;;;9.30;99.90;;;;;;4922736;29;20070;-65
2022/11/04 06:10:13;;;;;;;5.03;1.55;;;9.70;99.90;;;;;;4921769;29;20493;-66
2022/11/04 06:12:39;;;;;;;6.15;0.98;;;9.70;99.90;;;;;;4922053;29;20048;-65
2022/11/04 06:15:05;;;;;;;7.57;1.58;;;9.50;99.90;;;;;;4922161;29;20044;-65
2022/11/04 06:17:31;;;;;;;7.05;1.13;;;9.40;99.90;;;;;;4921408;29;20102;-65
2022/11/04 06:19:57;;;;;;;5.05;1.13;;;9.20;99.90;;;;;;4922115;29;20052;-62
2022/11/04 06:22:22;;;;;;;3.38;0.90;;;9.20;99.90;;;;;;4921022;29;20048;-65
2022/11/04 06:24:48;;;;;;;5.60;1.10;;;9.20;99.90;;;;;;4922685;29;20059;-65
2022/11/04 06:27:14;;;;;;;5.28;0.85;;;9.40;99.90;;;;;;4921398;29;20104;-65
2022/11/04 06:29:40;;;;;;;5.00;1.00;;;9.10;99.90;;;;;;4919318;29;20067;-64
2022/11/04 06:32:08;;;;;;;5.82;1.10;;;9.40;99.90;;;;;;4917887;29;20087;-65
2022/11/04 06:34:34;;;;;;;8.48;2.20;;;9.10;99.90;;;;;;4917786;29;20050;-65
2022/11/04 06:37:00;;;;;;;4.22;1.00;;;9.40;99.90;;;;;;4918446;29;20276;-63
2022/11/04 06:39:25;;;;;;;4.97;1.30;;;9.00;99.90;;;;;;4917654;29;20052;-65
2022/11/04 06:41:51;;;;;;;7.43;1.27;;;9.10;99.90;;;;;;4886309;29;20052;-65
2022/11/04 06:44:17;;;;;;;4.35;1.08;;;9.30;99.90;;;;;;4918045;29;20199;-64
2022/11/04 06:46:43;;;;;;;6.43;1.40;;;9.00;99.90;;;;;;4918407;29;20052;-65
2022/11/04 06:49:14;;;;;;;8.05;1.77;;;9.00;99.90;;;;;;4918565;29;20048;-64
2022/11/04 06:51:40;;;;;;;5.55;1.30;;;9.00;99.90;;;;;;4917753;29;20048;-65
2022/11/04 06:54:06;;;;;;;6.13;1.20;;;8.90;99.90;;;;;;4917453;29;20064;-64
2022/11/04 06:56:32;;;;;;;6.97;1.20;;;8.90;99.90;;;;;;4917287;29;20127;-64
2022/11/04 06:58:58;;;;;;;4.47;1.02;;;9.20;99.90;;;;;;4916779;29;20082;-63
2022/11/04 07:01:26;;;;;;;4.47;1.10;;;9.00;99.90;;;;;;4917535;29;20087;-64
2022/11/04 07:03:55;;;;;;;8.55;1.40;;;9.00;99.90;;;;;;4918689;29;20051;-65
2022/11/04 07:06:21;;;;;;;9.18;1.70;;;9.00;99.90;;;;;;4917504;29;20047;-64
2022/11/04 07:08:48;;;;;;;7.50;1.70;;;9.20;99.90;;;;;;4916871;29;20036;-64
2022/11/04 07:11:14;;;;;;;7.40;1.77;;;8.90;99.90;;;;;;4917502;29;20079;-64
2022/11/04 07:13:40;;;;;;;8.30;2.47;;;8.90;99.90;;;;;;4917213;29;20056;-64
2022/11/04 07:16:07;;;;;;;9.57;1.88;;;8.90;99.90;;;;;;4918621;29;20131;-65
2022/11/04 07:18:33;;;;;;;8.15;1.80;;;9.20;99.90;;;;;;4916738;29;20039;-64
2022/11/04 07:20:59;;;;;;;8.40;1.63;;;9.10;99.90;;;;;;4900474;29;20076;-64
2022/11/04 07:23:25;;;;;;;8.77;1.65;;;9.30;99.90;;;;;;4914855;29;20056;-63
2022/11/04 07:25:53;;;;;;;7.90;2.00;;;9.20;99.90;;;;;;4916573;29;20048;-64
2022/11/04 07:28:19;;;;;;;5.95;2.10;;;9.00;99.90;;;;;;4918033;29;20384;-63
2022/11/04 07:30:45;;;;;;;5.85;1.75;;;9.00;99.90;;;;;;4899383;29;20127;-63
2022/11/04 07:33:11;;;;;;;6.85;2.30;;;9.10;99.90;;;;;;4901671;29;20052;-64
2022/11/04 07:35:37;;;;;;;7.85;2.20;;;9.20;99.90;;;;;;4917773;29;20043;-64
2022/11/04 07:38:04;;;;;;;7.60;2.00;;;9.10;99.90;;;;;;4918740;29;20159;-64
2022/11/04 07:40:33;;;;;;;6.20;2.28;;;9.40;99.90;;;;;;4917742;29;20055;-64
2022/11/04 07:42:59;;;;;;;8.63;1.92;;;9.30;99.90;;;;;;4884017;29;20040;-65
2022/11/04 07:45:25;;;;;;;7.32;1.83;;;9.10;99.90;;;;;;4917251;29;20044;-64
2022/11/04 07:47:51;;;;;;;7.90;1.90;;;9.30;99.90;;;;;;4916077;29;20043;-64
2022/11/04 07:50:17;;;;;;;9.32;1.83;;;9.20;99.90;;;;;;4918178;29;20099;-64
2022/11/04 07:52:42;;;;;;;7.50;2.00;;;9.50;99.90;;;;;;4900166;29;20044;-64
2022/11/04 07:55:09;;;;;;;8.35;2.47;;;9.50;99.90;;;;;;4918091;29;20264;-64
2022/11/04 07:57:35;;;;;;;4.72;1.50;;;9.20;99.90;;;;;;4915325;29;20051;-64
2022/11/04 08:00:04;;;;;;;7.20;1.90;;;9.10;99.90;;;;;;4885567;29;20067;-64
2022/11/04 08:02:31;;;;;;;6.45;1.70;;;9.10;99.90;;;;;;4885510;29;20055;-64
2022/11/04 08:04:56;;;;;;;4.32;1.63;;;9.30;99.90;;;;;;4901280;29;20055;-64
2022/11/04 08:07:22;;;;;;;8.05;2.10;;;9.30;99.90;;;;;;4903077;29;20056;-64
2022/11/04 08:09:48;;;;;;;6.45;1.70;;;9.30;99.90;;;;;;4904513;29;20052;-64
2022/11/04 08:12:13;;;;;;;6.53;1.77;;;9.30;99.90;;;;;;4911633;29;20082;-65
2022/11/04 08:14:39;;;;;;;6.45;1.80;;;9.60;99.90;;;;;;4912425;29;20438;-65
2022/11/04 08:17:05;;;;;;;9.32;2.20;;;9.50;99.90;;;;;;4912667;29;20046;-65
2022/11/04 08:19:30;;;;;;;5.65;1.50;;;9.70;99.90;;;;;;4912760;29;20120;-62
2022/11/04 08:21:56;;;;;;;6.18;1.38;;;9.60;99.90;;;;;;4919578;29;20055;-62
2022/11/04 08:24:22;;;;;;;7.32;1.40;;;9.60;99.90;;;;;;4921573;29;20131;-62
2022/11/04 08:26:47;;;;;;;6.35;1.55;;;9.80;99.90;;;;;;4902095;29;20044;-63
2022/11/04 08:29:13;;;;;;;6.65;1.52;;;9.70;99.90;;;;;;4903310;29;20056;-62
2022/11/04 08:31:39;;;;;;;6.68;1.30;;;9.90;99.90;;;;;;4919888;29;20055;-62
2022/11/04 08:34:07;;;;;;;8.05;1.30;;;9.80;99.90;;;;;;4920400;29;20523;-63
2022/11/04 08:36:39;;;;;;;4.88;1.40;;;9.80;99.90;;;;;;4917632;29;20058;-62
2022/11/04 08:39:06;;;;;;;5.25;1.30;;;10.00;99.90;;;;;;4915749;29;20040;-62
2022/11/04 08:41:33;;;;;;;7.95;1.33;;;10.00;99.90;;;;;;4917650;29;20674;-63
2022/11/04 08:43:59;;;;;;;7.18;1.80;;;10.00;99.90;;;;;;4902638;29;20171;-62
2022/11/04 08:46:30;;;;;;;5.18;1.63;;;10.10;99.90;;;;;;4920960;29;20051;-63
2022/11/04 08:48:56;;;;;;;7.15;1.42;;;10.00;99.90;;;;;;4918164;29;20044;-61
2022/11/04 08:51:24;;;;;;;4.72;1.20;;;10.20;99.90;;;;;;4887337;29;20055;-63
2022/11/04 08:53:50;;;;;;;4.50;1.40;;;10.20;99.90;;;;;;4918206;29;20135;-63
2022/11/04 08:56:20;;;;;;;6.57;1.42;;;10.20;99.90;;;;;;4919795;29;20082;-63
2022/11/04 08:58:46;;;;;;;8.02;1.48;;;10.10;99.90;;;;;;4921487;29;20051;-64
2022/11/04 09:01:12;;;;;;;4.88;1.20;;;10.30;99.90;;;;;;4919632;29;20084;-63
2022/11/04 09:03:40;;;;;;;7.93;1.45;;;10.40;99.90;;;;;;4920918;29;20052;-63
2022/11/04 09:06:08;;;;;;;6.57;1.50;;;10.20;99.90;;;;;;4919580;29;20052;-62
2022/11/04 09:08:33;;;;;;;3.95;1.08;;;10.40;99.90;;;;;;4919054;29;20135;-64
2022/11/04 09:11:00;;;;;;;7.47;1.60;;;10.30;99.90;;;;;;4919884;29;20087;-63
2022/11/04 09:13:26;;;;;;;7.50;1.50;;;10.30;99.90;;;;;;4918155;29;20040;-63
2022/11/04 09:15:52;;;;;;;7.00;1.42;;;10.50;99.90;;;;;;4902328;29;20047;-63
2022/11/04 09:18:18;;;;;;;3.47;0.98;;;10.60;99.90;;;;;;4918879;29;20040;-64
2022/11/04 09:20:44;;;;;;;9.77;1.50;;;10.50;99.90;;;;;;4919530;29;20162;-63
2022/11/04 09:23:10;;;;;;;4.95;1.30;;;10.50;99.90;;;;;;4917075;29;20079;-63
2022/11/04 09:25:35;;;;;;;8.07;1.67;;;10.60;99.90;;;;;;4920068;29;20052;-64
2022/11/04 09:28:01;;;;;;;7.63;1.42;;;10.80;99.90;;;;;;4920000;29;20504;-63
2022/11/04 09:30:27;;;;;;;7.25;1.20;;;10.80;99.90;;;;;;4902049;29;20048;-64
2022/11/04 09:32:53;;;;;;;6.75;1.30;;;10.90;99.90;;;;;;4920720;29;20089;-64
2022/11/04 09:35:19;;;;;;;7.28;1.17;;;10.90;99.90;;;;;;4918960;29;20502;-63
2022/11/04 09:37:45;;;;;;;5.03;1.10;;;11.10;99.90;;;;;;4920112;29;20052;-63
2022/11/04 09:40:16;;;;;;;5.75;1.02;;;11.30;99.90;;;;;;4919153;29;20056;-64
2022/11/04 09:42:56;;;;;;;4.68;1.40;;;11.10;99.90;;;;;;4918917;29;20202;-64
2022/11/04 09:45:26;;;;;;;7.03;1.15;;;11.40;99.90;;;;;;4920238;29;20058;-63
2022/11/04 09:47:56;;;;;;;6.20;1.42;;;11.40;99.90;;;;;;4918732;29;20044;-64
2022/11/04 09:50:29;;;;;;;7.10;1.83;;;11.60;99.90;;;;;;4920193;29;20066;-63
2022/11/04 09:53:12;;;;;;;8.70;1.48;;;11.70;99.90;;;;;;4921756;29;20689;-64
2022/11/04 09:55:45;;;;;;;7.28;1.40;;;11.90;99.90;;;;;;4922355;29;20056;-64
2022/11/04 09:58:15;;;;;;;6.85;1.20;;;11.90;99.90;;;;;;4923437;29;20060;-63
2022/11/04 10:00:47;;;;;;;7.75;1.30;;;11.90;99.90;;;;;;4922170;29;20482;-60
2022/11/04 10:03:15;;;;;;;6.78;1.45;;;11.60;99.90;;;;;;4923850;29;20048;-64
2022/11/04 10:05:50;;;;;;;6.03;1.10;;;11.70;99.90;;;;;;4904744;29;20056;-64
2022/11/04 10:08:30;;;;;;;6.72;1.10;;;11.70;99.90;;;;;;4921659;29;20742;-63
2022/11/04 10:11:04;;;;;;;7.22;1.98;;;11.80;99.90;;;;;;4921715;29;20040;-64
2022/11/04 10:13:55;;;;;;;4.93;1.00;;;11.80;99.90;;;;;;4902735;29;20044;-64
2022/11/04 10:16:45;;;;;;;6.50;1.60;;;11.70;99.90;;;;;;4922261;29;20507;-64
2022/11/04 10:19:19;;;;;;;9.20;1.40;;;11.70;99.90;;;;;;4919763;29;20048;-64
2022/11/04 10:22:06;;;;;;;7.25;1.20;;;11.60;99.90;;;;;;4921241;29;20052;-64
2022/11/04 10:24:39;;;;;;;10.82;1.38;;;11.80;99.90;;;;;;4923366;29;20068;-63
2022/11/04 10:27:17;;;;;;;9.65;1.27;;;12.00;99.90;;;;;;4904714;29;20128;-63
2022/11/04 10:29:44;;;;;;;6.40;1.20;;;12.00;99.90;;;;;;4922637;29;20067;-63
2022/11/04 10:32:20;;;;;;;4.50;1.30;;;12.00;99.90;;;;;;4922161;29;20036;-63
2022/11/04 10:35:21;;;;;;;4.00;0.95;;;12.00;99.90;;;;;;4921684;29;20044;-60
2022/11/04 10:37:52;;;;;;;6.85;1.70;;;12.00;99.90;;;;;;4880001;29;20066;-63
2022/11/04 10:40:35;;;;;;;6.65;0.95;;;12.20;99.90;;;;;;4921853;29;20071;-63
2022/11/04 10:43:07;;;;;;;6.90;1.40;;;12.30;99.90;;;;;;4921905;29;20139;-63
2022/11/04 10:45:55;;;;;;;8.43;1.30;;;12.10;99.90;;;;;;4922255;29;20052;-64
2022/11/04 10:48:27;;;;;;;13.40;1.40;;;12.10;99.90;;;;;;4920876;29;20060;-63
2022/11/04 10:50:55;;;;;;;9.65;1.60;;;12.00;99.90;;;;;;4922755;29;20612;-63
2022/11/04 10:53:25;;;;;;;8.43;1.23;;;12.20;99.90;;;;;;4922451;29;20075;-62
2022/11/04 10:56:01;;;;;;;6.32;1.15;;;12.30;99.90;;;;;;4905110;29;20079;-63
2022/11/04 10:58:30;;;;;;;7.43;1.40;;;12.40;99.90;;;;;;4922826;29;20115;-62
2022/11/04 11:00:56;;;;;;;6.70;1.20;;;12.50;99.90;;;;;;4921684;29;20056;-62
2022/11/04 11:03:31;;;;;;;7.72;1.52;;;12.40;99.90;;;;;;4923136;29;20092;-62
2022/11/04 11:06:14;;;;;;;7.95;1.17;;;12.30;99.90;;;;;;4921966;29;20107;-63
2022/11/04 11:08:41;;;;;;;5.65;1.17;;;12.20;99.90;;;;;;4904895;29;20095;-63
2022/11/04 11:11:08;;;;;;;3.83;1.00;;;12.20;99.90;;;;;;4922516;29;20043;-63
2022/11/04 11:13:36;;;;;;;8.88;1.73;;;12.20;99.90;;;;;;4921253;29;20040;-62
2022/11/04 11:16:08;;;;;;;5.78;1.23;;;12.10;99.90;;;;;;4923180;29;20040;-62
2022/11/04 11:18:37;;;;;;;;;;;12.20;99.90;;;;;;4922451;29;20447;-62
2022/11/04 11:21:09;;;;;;;7.65;1.10;;;12.00;99.90;;;;;;4904769;29;19999;-63
2022/11/04 11:23:46;;;;;;;;;;;11.90;99.90;;;;;;4923031;29;20040;-62
2022/11/04 11:26:16;;;;;;;7.70;1.60;;;11.80;99.90;;;;;;4917143;29;19928;-62
2022/11/04 11:28:51;;;;;;;5.70;1.80;;;11.60;99.90;;;;;;4911541;29;20132;-63
2022/11/04 11:31:22;;;;;;;6.65;1.48;;;11.60;99.90;;;;;;4893779;29;20041;-64
2022/11/04 11:33:59;;;;;;;5.60;1.17;;;11.50;99.90;;;;;;4916248;29;20087;-63
2022/11/04 11:36:32;;;;;;;7.43;1.20;;;11.30;99.90;;;;;;4915428;29;20280;-63
2022/11/04 11:39:02;;;;;;;6.45;1.27;;;11.10;99.90;;;;;;4914012;29;20048;-64
2022/11/04 11:41:31;;;;;;;7.30;1.15;;;10.90;99.90;;;;;;4916293;29;20079;-64
2022/11/04 11:44:01;;;;;;;6.10;1.20;;;10.90;99.90;;;;;;4914864;29;20044;-66
2022/11/04 11:46:32;;;;;;;3.97;1.10;;;10.60;99.90;;;;;;4915264;29;20078;-74
2022/11/04 11:49:01;;;;;;;5.72;0.90;;;10.60;99.90;;;;;;4920332;29;20048;-72
2022/11/04 11:51:37;;;;;;;8.13;1.20;;;10.20;99.90;;;;;;4923678;29;20119;-71
2022/11/04 11:54:15;;;;;;;3.17;0.80;;;10.20;99.90;;;;;;4918108;29;20040;-69
2022/11/04 11:56:45;;;;;;;2.90;0.80;;;10.30;99.90;;;;;;4915461;29;20052;-69
2022/11/04 11:59:24;;;;;;;5.50;1.10;;;10.20;99.90;;;;;;4915871;29;20052;-67
2022/11/04 12:01:53;;;;;;;13.68;2.17;;;10.10;99.90;;;;;;4898084;29;20040;-66
2022/11/04 12:04:19;;;;;;;6.30;0.88;;;10.40;99.90;;;;;;4914273;29;20138;-66
2022/11/04 12:07:00;;;;;;;6.50;1.15;;;10.50;99.90;;;;;;4916477;29;20087;-66
2022/11/04 12:09:46;;;;;;;6.20;1.10;;;10.70;99.90;;;;;;4908732;29;20076;-65
2022/11/04 12:12:29;;;;;;;3.97;1.00;;;10.80;99.90;;;;;;4912247;29;20112;-64
2022/11/04 12:14:55;;;;;;;3.90;1.08;;;10.80;99.90;;;;;;4914877;29;20044;-64
2022/11/04 12:17:23;;;;;;;4.45;1.10;;;10.70;99.90;;;;;;4897849;29;20102;-64
2022/11/04 12:20:04;;;;;;;5.45;1.17;;;10.80;99.90;;;;;;4912039;29;20047;-64
2022/11/04 12:22:46;;;;;;;5.90;1.30;;;10.90;99.90;;;;;;4912171;29;20120;-63
2022/11/04 12:25:36;;;;;;;5.00;0.95;;;11.00;99.90;;;;;;4921864;29;20059;-63
2022/11/04 12:28:11;;;;;;;4.82;1.17;;;11.00;99.90;;;;;;4904578;29;20052;-63
2022/11/04 12:31:00;;;;;;;7.10;1.30;;;10.70;99.90;;;;;;4923529;29;20404;-62
2022/11/04 12:33:48;;;;;;;8.30;1.30;;;11.00;99.90;;;;;;4925160;29;20051;-63
2022/11/04 12:36:22;;;;;;;5.38;1.15;;;10.90;99.90;;;;;;4924654;29;20102;-63
2022/11/04 12:39:14;;;;;;;8.52;1.52;;;11.10;99.90;;;;;;4924203;29;20044;-63
2022/11/04 12:42:10;;;;;;;4.80;1.33;;;11.30;99.90;;;;;;4912695;29;20044;-63
2022/11/04 12:44:58;;;;;;;4.97;1.10;;;11.30;99.90;;;;;;4913891;29;20036;-63
2022/11/04 12:47:32;;;;;;;4.63;1.00;;;11.40;99.90;;;;;;4913973;29;20048;-63
2022/11/04 12:50:22;;;;;;;9.05;1.30;;;11.60;99.90;;;;;;4914448;29;20504;-62
2022/11/04 12:53:21;;;;;;;7.60;1.35;;;11.80;99.90;;;;;;4896868;29;20048;-62
2022/11/04 12:56:13;;;;;;;8.57;1.55;;;11.80;99.90;;;;;;4912923;29;20262;-63
2022/11/04 12:58:56;;;;;;;7.53;1.42;;;11.80;99.90;;;;;;4915523;29;20079;-63
2022/11/04 13:01:57;;;;;;;6.32;1.35;;;11.90;99.90;;;;;;4914353;29;20056;-63
2022/11/04 13:04:34;;;;;;;7.47;1.25;;;11.90;99.90;;;;;;4892117;29;20060;-63
2022/11/04 13:07:10;;;;;;;5.60;1.20;;;12.00;99.90;;;;;;4915313;29;20163;-63
2022/11/04 13:09:52;;;;;;;6.38;1.40;;;12.10;99.90;;;;;;4913756;29;20105;-63
2022/11/04 13:12:35;;;;;;;6.82;1.40;;;12.00;99.90;;;;;;4914184;29;20044;-62
2022/11/04 13:15:15;;;;;;;11.68;1.70;;;12.00;99.90;;;;;;4897825;29;20044;-63
2022/11/04 13:17:43;;;;;;;7.43;1.40;;;12.00;99.90;;;;;;4896056;29;20048;-63
2022/11/04 13:20:14;;;;;;;7.57;1.58;;;12.00;99.90;;;;;;4914677;29;20044;-63
2022/11/04 13:22:46;;;;;;;6.90;1.30;;;12.00;99.90;;;;;;4912733;29;20064;-63
2022/11/04 13:25:27;;;;;;;11.00;1.55;;;12.10;99.90;;;;;;4914483;29;20044;-64
2022/11/04 13:27:53;;;;;;;11.10;2.20;;;12.20;99.90;;;;;;4914025;29;20051;-64
2022/11/04 13:30:32;;;;;;;6.85;1.20;;;12.20;99.90;;;;;;4896194;29;20740;-64
2022/11/04 13:33:28;;;;;;;7.53;1.10;;;12.30;99.90;;;;;;4914303;29;20044;-64
2022/11/04 13:36:14;;;;;;;6.18;1.13;;;12.30;99.90;;;;;;4913197;29;20048;-64
2022/11/04 13:38:46;;;;;;;5.80;1.10;;;12.50;99.90;;;;;;4913272;29;20509;-65
2022/11/04 13:41:37;;;;;;;9.13;1.50;;;12.60;99.90;;;;;;4913758;29;20048;-63
2022/11/04 13:44:12;;;;;;;6.22;1.33;;;12.70;99.90;;;;;;4913053;29;20092;-63
2022/11/04 13:46:38;;;;;;;8.05;1.13;;;12.90;99.90;;;;;;4897028;29;20044;-64